Aviation Digital Data Service (ADDS)

Output produced by TAFs form (0126 UTC 28 July 2015)
found at http://aviationweather.gov/adds/tafs/
 
KASE 272320Z 2800/2824 26004KT P6SM FEW100 
     FM280300 20005KT P6SM SKC 
     FM281400 VRB03KT P6SM SKC 
     FM281800 32010G20KT P6SM SKC